Time;durP1;ratioP1;P1;durP2;ratioP2;P2;SDS_P1;SDS_P2;PMS_P1;PMS_P2;Temp;Humidity;BMP_temperature;BMP_pressure;BME280_temperature;BME280_humidity;BME280_pressure;Samples;Min_cycle;Max_cycle;Signal;HPM_P1;HPM_P2
2022/06/25 00:01:06;;;;;;;12.65;8.10;;;;;;;17.60;96.28;100724.59;4993799;28;20022;-46
2022/06/25 00:03:31;;;;;;;13.02;8.38;;;;;;;17.66;96.38;100733.31;4993528;28;20031;-43
2022/06/25 00:05:56;;;;;;;11.05;7.95;;;;;;;17.62;96.70;100726.22;4993474;28;20191;-45
2022/06/25 00:08:22;;;;;;;9.77;7.60;;;;;;;17.60;97.01;100721.19;4992296;28;20528;-45
2022/06/25 00:10:47;;;;;;;10.48;7.75;;;;;;;17.64;96.61;100724.16;4993977;28;20113;-48
2022/06/25 00:13:12;;;;;;;9.43;7.35;;;;;;;17.64;96.56;100727.56;4994172;28;20373;-46
2022/06/25 00:15:38;;;;;;;10.50;7.53;;;;;;;17.60;96.83;100729.03;4993886;28;20030;-46
2022/06/25 00:18:03;;;;;;;10.93;7.25;;;;;;;17.60;96.80;100729.03;4994148;28;20097;-46
2022/06/25 00:20:28;;;;;;;11.55;7.68;;;;;;;17.43;97.99;100729.00;4993638;28;20084;-47
2022/06/25 00:22:54;;;;;;;9.52;7.55;;;;;;;17.47;98.01;100734.56;4997520;28;20019;-46
2022/06/25 00:25:19;;;;;;;13.23;7.82;;;;;;;17.45;98.00;100734.00;4995897;28;20062;-47
2022/06/25 00:27:45;;;;;;;9.90;7.03;;;;;;;17.32;98.51;100735.06;4997333;28;20106;-45
2022/06/25 00:30:10;;;;;;;10.32;7.50;;;;;;;17.41;98.67;100733.69;4997191;28;20022;-45
2022/06/25 00:32:36;;;;;;;11.13;7.30;;;;;;;17.47;98.30;100735.34;4997279;28;20449;-46
2022/06/25 00:35:03;;;;;;;10.75;6.93;;;;;;;17.36;98.03;100744.03;4996940;28;20080;-45
2022/06/25 00:37:28;;;;;;;8.65;7.32;;;;;;;17.35;99.02;100738.00;4996696;28;20033;-46
2022/06/25 00:39:54;;;;;;;9.07;6.75;;;;;;;17.44;98.13;100733.22;4997538;28;20034;-45
2022/06/25 00:42:19;;;;;;;11.85;7.00;;;;;;;17.36;97.83;100726.53;4996897;28;20072;-45
2022/06/25 00:44:44;;;;;;;10.65;6.90;;;;;;;17.45;98.33;100741.84;4995948;28;20022;-45
2022/06/25 00:47:12;;;;;;;9.25;6.53;;;;;;;17.45;98.09;100741.84;4995207;28;20443;-44
2022/06/25 00:49:38;;;;;;;9.23;6.80;;;;;;;17.53;97.73;100741.47;4996986;28;20084;-45
2022/06/25 00:52:11;;;;;;;9.95;6.90;;;;;;;17.54;97.14;100745.66;4996978;28;20026;-44
2022/06/25 00:54:38;;;;;;;10.20;6.53;;;;;;;17.46;97.89;100740.81;4996660;28;20473;-45
2022/06/25 00:57:07;;;;;;;14.85;6.70;;;;;;;17.41;97.50;100740.72;4996576;28;20484;-44
2022/06/25 00:59:39;;;;;;;9.63;6.47;;;;;;;17.29;98.37;100748.56;4996873;28;20412;-45
2022/06/25 01:02:04;;;;;;;10.52;6.70;;;;;;;17.34;98.13;100753.91;4997069;28;20022;-49
2022/06/25 01:04:30;;;;;;;9.48;6.30;;;;;;;17.29;98.16;100752.00;4996795;28;20108;-45
2022/06/25 01:06:55;;;;;;;10.88;6.80;;;;;;;17.20;98.52;100755.97;4996407;28;20018;-45
2022/06/25 01:09:21;;;;;;;10.57;6.45;;;;;;;17.25;98.78;100757.91;4996269;28;20346;-45
2022/06/25 01:11:46;;;;;;;8.43;6.43;;;;;;;17.13;98.84;100771.00;4995286;28;20129;-45
2022/06/25 01:14:12;;;;;;;10.38;6.30;;;;;;;17.15;99.21;100758.50;4996251;28;20033;-45
2022/06/25 01:16:37;;;;;;;9.00;6.60;;;;;;;17.26;99.33;100768.13;4996285;28;20085;-45
2022/06/25 01:19:10;;;;;;;8.27;6.47;;;;;;;17.16;98.87;100764.53;4996231;28;20106;-45
2022/06/25 01:21:36;;;;;;;9.18;6.07;;;;;;;17.25;99.12;100770.97;4996677;28;20034;-45
2022/06/25 01:24:03;;;;;;;8.70;6.40;;;;;;;17.22;99.22;100769.59;4996216;28;20030;-44
2022/06/25 01:26:32;;;;;;;10.15;6.60;;;;;;;17.18;98.49;100776.31;4996030;28;20145;-45
2022/06/25 01:28:58;;;;;;;12.40;6.45;;;;;;;17.23;99.01;100778.22;4996041;28;20093;-45
2022/06/25 01:31:23;;;;;;;8.90;6.40;;;;;;;17.12;98.82;100772.03;4995988;28;20038;-45
2022/06/25 01:33:48;;;;;;;10.07;6.70;;;;;;;17.13;99.50;100782.22;4995362;28;20466;-44
2022/06/25 01:36:14;;;;;;;9.45;6.75;;;;;;;17.04;99.77;100773.16;4996196;28;20088;-49
2022/06/25 01:38:39;;;;;;;9.63;5.90;;;;;;;17.09;99.64;100775.91;4995980;28;20073;-44
2022/06/25 01:41:04;;;;;;;9.40;6.32;;;;;;;17.10;99.40;100780.09;4996073;28;20022;-45
2022/06/25 01:43:29;;;;;;;10.55;6.38;;;;;;;17.10;99.96;100785.31;4996001;28;20026;-45
2022/06/25 01:45:55;;;;;;;9.60;6.05;;;;;;;17.19;99.70;100775.28;4995877;28;20026;-45
2022/06/25 01:48:20;;;;;;;8.27;6.00;;;;;;;17.06;99.21;100781.56;4995495;28;20220;-44
2022/06/25 01:50:45;;;;;;;9.68;6.22;;;;;;;17.00;100.00;100787.69;4995639;28;20034;-45
2022/06/25 01:53:11;;;;;;;10.43;5.90;;;;;;;17.03;99.58;100789.88;4995474;28;20030;-45
2022/06/25 01:55:36;;;;;;;11.18;6.38;;;;;;;16.94;100.00;100790.44;4996043;28;20037;-45
2022/06/25 01:58:02;;;;;;;10.73;6.18;;;;;;;17.04;99.93;100788.03;4995972;28;20033;-45
2022/06/25 02:00:30;;;;;;;9.85;6.30;;;;;;;17.07;99.86;100787.59;4995710;28;20026;-45
2022/06/25 02:02:56;;;;;;;9.95;6.15;;;;;;;17.06;99.28;100799.84;4995381;28;20027;-45
2022/06/25 02:08:10;;;;;;;8.65;6.20;;;;;;;16.99;100.00;100798.38;4996099;28;20037;-45
2022/06/25 02:10:35;;;;;;;17.40;6.80;;;;;;;17.02;99.87;100801.31;4995742;28;20113;-45
2022/06/25 02:13:01;;;;;;;9.93;6.10;;;;;;;17.02;99.49;100809.16;4995148;28;20054;-44
2022/06/25 02:15:26;;;;;;;14.45;6.65;;;;;;;16.85;100.00;100811.66;4995350;28;20030;-44
2022/06/25 02:17:52;;;;;;;9.63;6.60;;;;;;;16.85;100.00;100818.69;4995372;28;20374;-44
2022/06/25 02:20:17;;;;;;;11.88;6.75;;;;;;;16.92;100.00;100819.38;4995049;28;20026;-44
2022/06/25 02:22:43;;;;;;;9.45;6.38;;;;;;;16.89;100.00;100825.84;4995740;28;20097;-44
2022/06/25 02:25:08;;;;;;;8.18;6.55;;;;;;;16.91;100.00;100830.81;4994862;28;20030;-45
2022/06/25 02:27:34;;;;;;;8.32;6.10;;;;;;;16.78;100.00;100828.47;4994279;28;20057;-44
2022/06/25 02:29:59;;;;;;;8.35;6.45;;;;;;;16.76;100.00;100833.88;4995388;28;20030;-45
2022/06/25 02:32:25;;;;;;;8.90;6.18;;;;;;;16.88;100.00;100839.13;4995071;28;20033;-46
2022/06/25 02:34:50;;;;;;;7.93;6.00;;;;;;;16.76;100.00;100835.69;4995146;28;20022;-45
2022/06/25 02:37:16;;;;;;;9.75;6.20;;;;;;;16.79;100.00;100838.66;4994672;28;20028;-45
2022/06/25 02:39:41;;;;;;;9.43;6.55;;;;;;;16.68;100.00;100836.81;4994570;28;20036;-45
2022/06/25 02:42:07;;;;;;;8.55;5.90;;;;;;;16.68;100.00;100834.19;4995197;28;20026;-44
2022/06/25 02:44:32;;;;;;;9.27;6.60;;;;;;;16.77;100.00;100840.69;4993834;28;20026;-45
2022/06/25 02:46:57;;;;;;;8.82;6.25;;;;;;;16.82;100.00;100843.41;4994394;28;20054;-46
2022/06/25 02:49:23;;;;;;;9.40;6.05;;;;;;;16.83;100.00;100839.81;4994756;28;20069;-44
2022/06/25 02:51:48;;;;;;;12.13;6.45;;;;;;;16.72;100.00;100843.19;4994552;28;20493;-44
2022/06/25 02:54:13;;;;;;;9.15;5.95;;;;;;;16.66;100.00;100850.09;4995021;28;20027;-45
2022/06/25 02:59:22;;;;;;;13.48;6.00;;;;;;;16.78;100.00;100850.13;4995133;28;20114;-45
2022/06/25 03:01:48;;;;;;;11.32;6.22;;;;;;;16.62;100.00;100858.56;4994575;28;20109;-45
2022/06/25 03:04:13;;;;;;;11.32;6.47;;;;;;;16.72;100.00;100863.25;4994831;28;20361;-44
2022/06/25 03:06:39;;;;;;;9.13;6.20;;;;;;;16.67;100.00;100856.09;4993054;28;20026;-44
2022/06/25 03:09:05;;;;;;;7.80;6.07;;;;;;;16.61;100.00;100857.78;4994679;28;20026;-44
2022/06/25 03:11:31;;;;;;;8.30;5.90;;;;;;;16.68;100.00;100866.28;4994394;28;20031;-44
2022/06/25 03:13:56;;;;;;;10.30;6.00;;;;;;;16.69;100.00;100860.06;4994534;28;20422;-44
2022/06/25 03:16:21;;;;;;;7.88;6.32;;;;;;;16.66;100.00;100870.16;4994113;28;20420;-44
2022/06/25 03:18:47;;;;;;;8.13;6.05;;;;;;;16.63;100.00;100868.81;4994071;28;20029;-43
2022/06/25 03:21:12;;;;;;;11.50;6.30;;;;;;;16.69;100.00;100869.72;4994033;28;20030;-44
2022/06/25 03:23:37;;;;;;;12.07;6.03;;;;;;;16.66;100.00;100878.00;4994420;28;20030;-45
2022/06/25 03:26:03;;;;;;;9.38;5.97;;;;;;;16.59;100.00;100874.69;4994139;28;20070;-44
2022/06/25 03:28:28;;;;;;;8.10;5.88;;;;;;;16.58;100.00;100871.28;4994519;28;20025;-44
2022/06/25 03:30:54;;;;;;;11.13;6.05;;;;;;;16.64;100.00;100874.81;4994286;28;20425;-44
2022/06/25 03:33:19;;;;;;;9.85;6.05;;;;;;;16.64;100.00;100874.81;4993840;28;20034;-45
2022/06/25 03:35:44;;;;;;;8.65;6.07;;;;;;;16.58;100.00;100880.94;4994148;28;20041;-44
2022/06/25 03:38:10;;;;;;;11.30;5.88;;;;;;;16.62;100.00;100884.66;4994123;28;20373;-44
2022/06/25 03:40:35;;;;;;;8.65;6.15;;;;;;;16.66;100.00;100888.44;4994200;28;20026;-44
2022/06/25 03:43:00;;;;;;;9.32;5.93;;;;;;;16.73;100.00;100881.28;4993752;28;20030;-45
2022/06/25 03:45:26;;;;;;;12.35;6.40;;;;;;;16.68;100.00;100886.38;4992548;28;20085;-44
2022/06/25 03:47:52;;;;;;;10.38;5.90;;;;;;;16.66;100.00;100891.84;4993631;28;20571;-44
2022/06/25 03:50:18;;;;;;;10.85;6.10;;;;;;;16.61;100.00;100883.88;4994136;28;20034;-44
2022/06/25 03:52:45;;;;;;;9.07;5.65;;;;;;;16.63;100.00;100887.06;4993866;28;20389;-45
2022/06/25 03:55:11;;;;;;;8.70;5.60;;;;;;;16.70;100.00;100887.75;4993756;28;20028;-44
2022/06/25 03:57:37;;;;;;;8.02;5.60;;;;;;;16.85;100.00;100891.78;4997321;28;20026;-44
2022/06/25 04:00:03;;;;;;;10.27;5.63;;;;;;;16.82;99.24;100892.22;4997897;28;20033;-45
2022/06/25 04:02:29;;;;;;;7.95;5.30;;;;;;;16.66;99.91;100888.44;4997903;28;20027;-44
2022/06/25 04:04:54;;;;;;;8.82;5.10;;;;;;;16.73;99.84;100889.13;4997500;28;20461;-44
2022/06/25 04:07:19;;;;;;;7.45;5.20;;;;;;;16.77;99.54;100892.09;4997710;28;20081;-46
2022/06/25 04:09:45;;;;;;;7.65;5.50;;;;;;;17.05;98.92;100886.22;4996209;28;20370;-46
2022/06/25 04:12:11;;;;;;;8.43;5.50;;;;;;;17.02;97.41;100889.28;4996556;28;20233;-45
2022/06/25 04:14:37;;;;;;;9.23;4.78;;;;;;;17.03;98.00;100891.69;4997625;28;20030;-44
2022/06/25 04:17:02;;;;;;;10.10;5.00;;;;;;;17.12;96.90;100885.09;4996132;28;20370;-45
2022/06/25 04:19:28;;;;;;;7.20;4.70;;;;;;;17.27;96.32;100899.50;4997546;28;20050;-45
2022/06/25 04:21:53;;;;;;;8.82;4.85;;;;;;;17.44;95.11;100892.56;4997818;28;20030;-45
2022/06/25 04:24:18;;;;;;;6.88;4.50;;;;;;;17.58;94.55;100893.13;4997233;28;20442;-44
2022/06/25 04:26:44;;;;;;;12.05;4.72;;;;;;;17.50;93.80;100891.66;4997413;28;20033;-45
2022/06/25 04:29:09;;;;;;;7.28;4.28;;;;;;;17.63;93.55;100903.66;4997033;28;20106;-44
2022/06/25 04:31:36;;;;;;;12.32;4.60;;;;;;;17.68;92.24;100905.59;4997362;28;20030;-45
2022/06/25 04:34:03;;;;;;;8.25;4.38;;;;;;;17.53;93.75;100903.47;4997384;28;20046;-44
2022/06/25 04:36:29;;;;;;;11.43;4.57;;;;;;;17.64;92.79;100917.53;4997530;28;20543;-44
2022/06/25 04:38:55;;;;;;;7.45;4.40;;;;;;;17.59;92.28;100908.53;4996804;28;20038;-44
2022/06/25 04:41:20;;;;;;;8.32;4.43;;;;;;;17.59;92.45;100911.16;5012078;28;20022;-44
2022/06/25 04:43:46;;;;;;;9.38;4.68;;;;;;;17.67;92.60;100914.47;4995660;28;20120;-44
2022/06/25 04:46:11;;;;;;;8.30;4.47;;;;;;;17.89;91.37;100919.88;4997354;28;20030;-44
2022/06/25 04:48:37;;;;;;;11.80;4.68;;;;;;;17.93;90.76;100926.25;4996530;28;20511;-44
2022/06/25 04:51:02;;;;;;;10.02;4.32;;;;;;;17.70;91.52;100917.41;4996750;28;20528;-44
2022/06/25 04:53:28;;;;;;;7.45;4.10;;;;;;;17.81;91.30;100915.81;4997234;28;20437;-45
2022/06/25 04:55:53;;;;;;;6.90;4.07;;;;;;;18.14;89.48;100919.56;4996936;28;20050;-45
2022/06/25 04:58:18;;;;;;;8.32;4.13;;;;;;;18.27;88.94;100924.53;4996582;28;20358;-44
2022/06/25 05:00:44;;;;;;;6.80;3.83;;;;;;;18.20;88.68;100927.25;4996795;28;20026;-45
2022/06/25 05:03:09;;;;;;;8.30;3.97;;;;;;;18.52;87.38;100934.63;4996597;28;20030;-45
2022/06/25 05:05:36;;;;;;;7.90;3.90;;;;;;;18.78;85.83;100927.22;4996449;28;20018;-44
2022/06/25 05:08:01;;;;;;;13.40;3.30;;;;;;;18.97;84.07;100938.28;4995456;28;20065;-44
2022/06/25 05:10:26;;;;;;;6.20;3.70;;;;;;;19.21;82.67;100931.03;4996938;28;20061;-45
2022/06/25 05:15:37;;;;;;;8.48;3.13;;;;;;;19.86;80.28;100946.06;4997017;28;20537;-44
2022/06/25 05:18:02;;;;;;;5.63;2.80;;;;;;;19.79;78.20;100948.88;4996446;28;20045;-45
2022/06/25 05:20:28;;;;;;;5.13;2.80;;;;;;;19.70;79.20;100944.28;4996247;28;20045;-45
2022/06/25 05:22:53;;;;;;;6.13;2.90;;;;;;;19.63;78.75;100938.41;4996038;28;20076;-45
2022/06/25 05:25:18;;;;;;;6.68;2.80;;;;;;;19.55;78.62;100944.84;4996165;28;20030;-44
2022/06/25 05:27:44;;;;;;;13.88;2.70;;;;;;;19.46;77.98;100943.69;4996823;28;20026;-44
2022/06/25 05:30:09;;;;;;;5.07;2.60;;;;;;;19.48;78.62;100946.84;4996062;28;20026;-45
2022/06/25 05:32:35;;;;;;;5.30;2.60;;;;;;;19.31;78.78;100952.94;4996092;28;20038;-45
2022/06/25 05:35:01;;;;;;;6.00;2.50;;;;;;;19.22;79.25;100957.00;4996894;28;20018;-44
2022/06/25 05:37:26;;;;;;;7.20;2.78;;;;;;;19.29;79.57;100959.44;4994501;28;20028;-45
2022/06/25 05:39:52;;;;;;;5.88;2.78;;;;;;;18.89;80.72;100963.81;4995939;28;20026;-45
2022/06/25 05:42:18;;;;;;;5.32;2.60;;;;;;;19.42;78.53;100966.97;4996045;28;20109;-46
2022/06/25 05:44:43;;;;;;;8.00;2.40;;;;;;;20.13;74.56;100974.94;4996645;28;20106;-44
2022/06/25 05:47:09;;;;;;;4.10;2.33;;;;;;;23.93;62.26;100970.75;4995370;28;20133;-45
2022/06/25 05:49:35;;;;;;;7.82;2.40;;;;;;;22.45;64.53;100978.88;4995633;28;20086;-45
2022/06/25 05:52:00;;;;;;;7.18;2.40;;;;;;;21.37;68.24;100970.53;4995664;28;20053;-45
2022/06/25 05:54:26;;;;;;;6.93;2.70;;;;;;;24.16;60.81;100977.22;4995787;28;20037;-45
2022/06/25 05:56:52;;;;;;;7.60;2.40;;;;;;;25.68;53.86;100973.56;4995528;28;20026;-45
2022/06/25 05:59:17;;;;;;;4.75;2.45;;;;;;;26.85;49.48;100989.69;4996025;28;20028;-45
2022/06/25 06:01:42;;;;;;;7.75;2.40;;;;;;;28.27;45.98;100973.91;4995795;28;20027;-45
2022/06/25 06:04:07;;;;;;;9.00;2.53;;;;;;;26.86;50.27;100988.59;4995563;28;20453;-44
2022/06/25 06:06:33;;;;;;;10.07;2.50;;;;;;;26.02;51.16;100984.00;4995546;28;20137;-45
2022/06/25 06:08:58;;;;;;;13.95;2.53;;;;;;;23.40;59.24;100983.59;4995673;28;20110;-44
2022/06/25 06:11:24;;;;;;;7.40;2.47;;;;;;;24.02;57.15;100992.88;4995126;28;20100;-44
2022/06/25 06:13:49;;;;;;;5.38;2.50;;;;;;;23.04;60.53;100996.81;4995392;28;20018;-44
2022/06/25 06:16:15;;;;;;;6.85;2.70;;;;;;;25.55;53.90;100990.13;4995440;28;20026;-44
2022/06/25 06:18:40;;;;;;;10.18;2.60;;;;;;;26.71;49.95;101004.75;4994948;28;20038;-45
2022/06/25 06:21:05;;;;;;;5.78;2.38;;;;;;;27.67;48.18;100993.50;4995105;28;20033;-44
2022/06/25 06:23:31;;;;;;;7.45;2.40;;;;;;;26.85;48.71;100997.63;4995248;28;20461;-45
2022/06/25 06:25:57;;;;;;;9.00;2.42;;;;;;;24.66;54.20;101004.41;4993732;28;20109;-44
2022/06/25 06:28:22;;;;;;;8.88;2.88;;;;;;;22.75;60.42;101007.06;4995078;28;20019;-45
2022/06/25 06:30:47;;;;;;;8.32;2.35;;;;;;;25.03;54.71;101008.34;4994932;28;20085;-44
2022/06/25 06:33:13;;;;;;;8.93;3.00;;;;;;;25.49;53.01;101020.34;4995118;28;20038;-45
2022/06/25 06:35:38;;;;;;;7.07;2.60;;;;;;;26.84;49.34;101011.94;4994911;28;20156;-44
2022/06/25 06:38:03;;;;;;;6.72;2.50;;;;;;;26.86;49.99;101001.84;4994746;28;20464;-45
2022/06/25 06:40:29;;;;;;;11.80;2.60;;;;;;;25.66;52.55;100992.38;4995194;28;20041;-43
2022/06/25 06:42:55;;;;;;;8.68;2.60;;;;;;;24.91;53.93;101007.91;4994763;28;20026;-47
2022/06/25 06:45:21;;;;;;;7.70;2.45;;;;;;;24.05;56.16;100996.81;4994899;28;20408;-43
2022/06/25 06:47:47;;;;;;;5.90;2.25;;;;;;;23.94;55.87;101005.84;4994483;28;20070;-43
2022/06/25 06:50:13;;;;;;;9.70;2.55;;;;;;;23.27;59.06;101006.00;4994768;28;20033;-44
2022/06/25 06:52:38;;;;;;;4.95;2.33;;;;;;;22.49;61.53;101009.66;4994556;28;20034;-45
2022/06/25 06:55:04;;;;;;;7.80;2.85;;;;;;;21.89;63.80;101015.50;4994829;28;20026;-46
2022/06/25 06:57:31;;;;;;;14.15;3.03;;;;;;;22.48;62.71;101013.38;4994685;28;20038;-46
2022/06/25 06:59:58;;;;;;;7.80;2.65;;;;;;;23.77;59.28;101000.94;4994355;28;20025;-45
2022/06/25 07:02:25;;;;;;;8.50;2.58;;;;;;;24.00;57.63;101010.06;4994679;28;20028;-45
2022/06/25 07:04:52;;;;;;;6.57;2.60;;;;;;;24.96;55.70;101013.94;4992880;28;20033;-44
2022/06/25 07:07:17;;;;;;;7.43;2.72;;;;;;;24.66;57.35;101015.00;4994606;28;20026;-45
2022/06/25 07:09:43;;;;;;;4.85;2.30;;;;;;;24.42;56.37;101016.69;4993073;28;20384;-44
2022/06/25 07:12:08;;;;;;;5.38;2.50;;;;;;;23.00;59.78;101019.50;4994372;28;20041;-44
2022/06/25 07:14:34;;;;;;;9.18;2.83;;;;;;;22.62;61.37;101013.66;4994461;28;20432;-44
2022/06/25 07:17:03;;;;;;;4.90;2.50;;;;;;;22.43;63.94;101018.63;4994266;28;20046;-44
2022/06/25 07:19:29;;;;;;;5.32;2.40;;;;;;;22.15;63.03;101032.19;4992799;28;20113;-44
2022/06/25 07:21:54;;;;;;;8.80;3.05;;;;;;;21.42;66.23;101037.34;4994062;28;20041;-44
2022/06/25 07:24:20;;;;;;;9.20;2.85;;;;;;;21.91;65.76;101023.94;4994253;28;20026;-44
2022/06/25 07:26:46;;;;;;;6.68;2.70;;;;;;;21.14;66.98;101031.31;4994132;28;20049;-44
2022/06/25 07:29:11;;;;;;;5.38;2.65;;;;;;;21.46;66.51;101033.16;4994305;28;20366;-44
2022/06/25 07:31:36;;;;;;;7.55;2.50;;;;;;;21.53;66.73;101033.75;4993779;28;20028;-44
2022/06/25 07:34:02;;;;;;;9.23;3.10;;;;;;;21.16;67.38;101051.06;4994002;28;20477;-45
2022/06/25 07:36:28;;;;;;;6.57;2.72;;;;;;;21.16;68.49;101056.31;4994276;28;20030;-46
2022/06/25 07:38:55;;;;;;;6.28;2.88;;;;;;;21.05;69.25;101045.97;4994044;28;20058;-45
2022/06/25 07:41:20;;;;;;;5.60;2.97;;;;;;;21.07;68.41;101044.69;4992431;28;20492;-44
2022/06/25 07:43:46;;;;;;;6.25;2.88;;;;;;;21.27;67.88;101051.16;4993705;28;20054;-45
2022/06/25 07:46:11;;;;;;;5.70;3.00;;;;;;;21.05;68.71;101052.00;4993723;28;20026;-44
2022/06/25 07:48:38;;;;;;;6.22;3.28;;;;;;;21.02;69.13;101057.75;4993453;28;20051;-45
2022/06/25 07:53:47;;;;;;;8.13;3.53;;;;;;;20.80;70.27;101062.28;4993704;28;20515;-44
2022/06/25 07:56:13;;;;;;;8.90;3.25;;;;;;;20.83;70.31;101059.16;5008584;28;20022;-44
2022/06/25 07:58:38;;;;;;;11.25;3.50;;;;;;;20.54;70.65;101051.50;4992390;28;20034;-43
2022/06/25 08:01:04;;;;;;;7.85;3.72;;;;;;;20.43;71.84;101047.19;4993580;28;20022;-44
2022/06/25 08:03:30;;;;;;;6.28;3.30;;;;;;;20.49;72.17;101056.72;4993425;28;20022;-44
2022/06/25 08:05:56;;;;;;;13.23;3.45;;;;;;;20.43;71.83;101057.69;4993911;28;20030;-44
2022/06/25 08:08:22;;;;;;;11.68;3.83;;;;;;;20.33;72.77;101047.06;4992736;28;20026;-44
2022/06/25 08:10:47;;;;;;;6.97;3.50;;;;;;;20.56;72.05;101056.53;4993992;28;20030;-45
2022/06/25 08:13:13;;;;;;;8.05;3.70;;;;;;;20.77;71.26;101058.31;4994216;28;20100;-44
2022/06/25 08:15:38;;;;;;;8.82;3.70;;;;;;;20.62;71.85;101061.59;4993494;28;20037;-46
2022/06/25 08:18:04;;;;;;;8.95;3.50;;;;;;;21.19;70.90;101063.69;4993860;28;20082;-46
2022/06/25 08:20:29;;;;;;;6.85;3.55;;;;;;;21.55;68.43;101053.47;4993423;28;20029;-45
2022/06/25 08:22:54;;;;;;;13.18;3.47;;;;;;;21.58;69.00;101065.34;4993591;28;20026;-44
2022/06/25 08:25:20;;;;;;;8.73;3.70;;;;;;;21.89;67.79;101057.59;4991986;28;20026;-44
2022/06/25 08:27:52;;;;;;;5.25;3.22;;;;;;;21.62;68.52;101064.56;4993366;28;20037;-45
2022/06/25 08:30:18;;;;;;;8.88;3.33;;;;;;;21.32;67.63;101069.56;4992516;28;20030;-45
2022/06/25 08:32:44;;;;;;;7.22;3.38;;;;;;;21.14;67.95;101073.38;4993850;28;20073;-45
2022/06/25 08:35:11;;;;;;;8.45;3.40;;;;;;;20.86;69.77;101074.41;4993491;28;20393;-45
2022/06/25 08:37:38;;;;;;;8.93;3.13;;;;;;;20.98;69.67;101075.09;4993163;28;20033;-43
2022/06/25 08:40:05;;;;;;;8.98;3.20;;;;;;;20.94;69.01;101085.31;4993593;28;20072;-46
2022/06/25 08:42:31;;;;;;;9.80;3.65;;;;;;;20.65;69.66;101073.44;4993760;28;20041;-45
2022/06/25 08:44:56;;;;;;;6.20;2.90;;;;;;;20.56;71.76;101072.28;4997405;28;20345;-45
2022/06/25 08:47:22;;;;;;;7.82;3.30;;;;;;;20.71;71.98;101081.13;4996351;28;20493;-50
2022/06/25 08:49:48;;;;;;;6.93;3.42;;;;;;;20.80;71.15;101089.38;4979320;28;20053;-44
2022/06/25 08:52:16;;;;;;;7.97;2.85;;;;;;;21.37;69.68;101083.56;4996674;28;20027;-45
2022/06/25 08:54:42;;;;;;;9.43;3.60;;;;;;;21.42;69.13;101087.28;4996916;28;20026;-45
2022/06/25 08:57:08;;;;;;;8.05;3.22;;;;;;;21.42;68.68;101088.09;4996986;28;20034;-45
2022/06/25 08:59:34;;;;;;;6.43;3.45;;;;;;;21.22;69.14;101087.91;4996503;28;20027;-42
2022/06/25 09:01:59;;;;;;;8.27;3.00;;;;;;;21.39;69.16;101088.59;4996821;28;20018;-45
2022/06/25 09:04:24;;;;;;;6.13;3.28;;;;;;;21.93;67.54;101075.25;4996963;28;20032;-43
2022/06/25 09:06:51;;;;;;;10.40;3.40;;;;;;;21.92;67.16;101078.13;4996725;28;20050;-44
2022/06/25 09:09:16;;;;;;;7.47;3.30;;;;;;;21.85;67.64;101081.00;4996629;28;20033;-44
2022/06/25 09:12:08;;;;;;;9.98;3.22;;;;;;;21.94;68.09;101082.09;4996415;28;20030;-44
2022/06/25 09:14:35;;;;;;;11.93;3.70;;;;;;;21.38;68.37;101085.16;4992520;28;20069;-44
2022/06/25 09:17:08;;;;;;;6.97;3.38;;;;;;;21.19;68.91;101086.56;4996203;28;20026;-45
2022/06/25 09:19:38;;;;;;;8.52;3.58;;;;;;;21.17;68.78;101084.16;4996662;28;20026;-44
2022/06/25 09:22:06;;;;;;;11.52;4.28;;;;;;;21.20;68.64;101082.88;4996054;28;20026;-44
2022/06/25 09:24:50;;;;;;;9.57;4.00;;;;;;;21.84;67.31;101085.47;4996191;28;20030;-44
2022/06/25 09:27:20;;;;;;;10.82;3.78;;;;;;;22.00;67.08;101083.69;4994646;28;20022;-45
2022/06/25 09:29:49;;;;;;;14.98;3.78;;;;;;;21.80;67.90;101094.13;4996318;28;20026;-44
2022/06/25 09:32:15;;;;;;;7.82;3.65;;;;;;;21.72;66.58;101092.78;4996261;28;20033;-44
2022/06/25 09:34:41;;;;;;;11.70;3.58;;;;;;;21.68;67.51;101086.41;4995743;28;20048;-49
2022/06/25 09:37:17;;;;;;;8.80;4.18;;;;;;;21.28;67.73;101082.41;4995805;28;20030;-44
2022/06/25 09:39:43;;;;;;;8.38;3.65;;;;;;;22.20;65.56;101090.94;4996059;28;20050;-46
2022/06/25 09:42:20;;;;;;;8.65;3.40;;;;;;;23.07;63.28;101082.47;4995775;28;20041;-45
2022/06/25 09:44:47;;;;;;;7.90;3.30;;;;;;;24.17;60.78;101081.78;4996308;28;20365;-45
2022/06/25 09:47:13;;;;;;;9.63;3.20;;;;;;;25.39;56.52;101087.38;4995302;28;20042;-45
2022/06/25 09:49:39;;;;;;;8.93;4.10;;;;;;;24.34;56.57;101081.47;4995857;28;20377;-45
2022/06/25 09:52:05;;;;;;;6.70;3.38;;;;;;;25.18;56.83;101082.28;4995751;28;20109;-45
2022/06/25 09:54:31;;;;;;;8.15;3.22;;;;;;;24.96;56.30;101077.38;4995034;28;20125;-46
2022/06/25 09:56:59;;;;;;;12.05;3.70;;;;;;;24.39;56.42;101081.41;4996162;28;20023;-45
2022/06/25 09:59:29;;;;;;;7.43;3.40;;;;;;;24.39;58.89;101070.84;4995530;28;20058;-45
2022/06/25 10:01:55;;;;;;;7.65;3.60;;;;;;;24.06;57.88;101078.41;4995480;28;20102;-45
2022/06/25 10:04:21;;;;;;;9.13;4.30;;;;;;;23.41;59.49;101069.56;4995755;28;20026;-45
2022/06/25 10:06:49;;;;;;;6.57;3.92;;;;;;;23.48;59.90;101071.91;4995635;28;20026;-45
2022/06/25 10:09:17;;;;;;;9.20;4.40;;;;;;;23.34;60.52;101071.69;4995181;28;20033;-44
2022/06/25 10:11:43;;;;;;;11.45;4.13;;;;;;;23.07;60.34;101075.34;4995750;28;20022;-45
2022/06/25 10:14:08;;;;;;;9.07;4.03;;;;;;;22.69;60.69;101082.66;4995208;28;20081;-45
2022/06/25 10:16:33;;;;;;;10.32;4.45;;;;;;;22.92;60.37;101072.69;4995217;28;20033;-45
2022/06/25 10:19:03;;;;;;;7.53;4.55;;;;;;;22.60;61.52;101075.53;4995168;28;20464;-45
2022/06/25 10:21:28;;;;;;;6.20;3.88;;;;;;;22.68;61.55;101082.94;4995204;28;20078;-43
2022/06/25 10:23:57;;;;;;;7.53;4.28;;;;;;;23.21;60.68;101091.44;4994948;28;20057;-45
2022/06/25 10:26:23;;;;;;;8.95;4.50;;;;;;;23.05;61.31;101085.38;4994947;28;20030;-45
2022/06/25 10:28:49;;;;;;;6.45;4.07;;;;;;;23.81;59.21;101081.13;4994688;28;20026;-45
2022/06/25 10:31:16;;;;;;;9.35;4.22;;;;;;;23.39;60.18;101084.84;4995099;28;20022;-45
2022/06/25 10:33:53;;;;;;;9.57;3.90;;;;;;;23.43;60.27;101083.28;4994742;28;20022;-46
2022/06/25 10:36:42;;;;;;;5.93;3.80;;;;;;;23.74;59.53;101080.63;4995019;28;20030;-44
2022/06/25 10:39:22;;;;;;;6.25;3.70;;;;;;;23.78;58.07;101082.44;4994530;28;20018;-44
2022/06/25 10:45:15;;;;;;;7.45;3.97;;;;;;;23.38;59.90;101081.41;4994904;28;20373;-44
2022/06/25 10:47:41;;;;;;;8.73;4.10;;;;;;;23.05;60.84;101087.25;4994483;28;20046;-45
2022/06/25 10:50:21;;;;;;;9.15;3.95;;;;;;;22.86;64.10;101082.44;4994445;28;20030;-44
2022/06/25 10:53:02;;;;;;;8.23;3.60;;;;;;;22.75;65.57;101089.53;4994446;28;20065;-44
2022/06/25 10:55:34;;;;;;;8.13;3.78;;;;;;;22.57;67.53;101097.13;4994337;28;20029;-45
2022/06/25 10:58:15;;;;;;;6.32;3.28;;;;;;;22.42;67.86;101097.88;4994434;28;20022;-44
2022/06/25 11:00:48;;;;;;;10.93;3.78;;;;;;;22.46;68.73;101107.63;4994680;28;20026;-45
2022/06/25 11:03:15;;;;;;;8.20;3.60;;;;;;;22.55;67.57;101109.75;4994280;28;20113;-45
2022/06/25 11:05:42;;;;;;;8.23;3.20;;;;;;;22.27;68.75;101123.09;4993496;28;20022;-45
2022/06/25 11:08:08;;;;;;;7.55;3.28;;;;;;;22.25;70.22;101116.50;4994177;28;20038;-45
2022/06/25 11:10:37;;;;;;;9.02;3.22;;;;;;;21.85;71.33;101125.72;4992875;28;20056;-45
2022/06/25 11:13:03;;;;;;;9.45;3.50;;;;;;;21.83;69.93;101127.81;4994143;28;20033;-45
2022/06/25 11:15:58;;;;;;;10.30;3.42;;;;;;;21.26;72.32;101144.97;4994101;28;20034;-46
2022/06/25 11:18:23;;;;;;;9.63;4.22;;;;;;;21.61;71.12;101127.94;4981795;28;20057;-44
2022/06/25 11:20:49;;;;;;;11.30;3.63;;;;;;;22.50;68.88;101111.34;4994553;28;20026;-46
2022/06/25 11:23:15;;;;;;;12.52;3.65;;;;;;;23.71;64.67;101118.06;4993513;28;20034;-45
2022/06/25 11:31:23;;;;;;;12.50;3.60;;;;;;;26.78;54.07;101132.41;4994707;28;20085;-46
2022/06/25 11:33:51;;;;;;;12.00;3.80;;;;;;;26.30;55.34;101130.66;4993048;28;20073;-45
2022/06/25 11:36:18;;;;;;;6.85;3.83;;;;;;;25.33;56.39;101134.25;4994120;28;20026;-47
2022/06/25 11:38:50;;;;;;;7.75;3.47;;;;;;;25.83;56.00;101149.97;4993740;28;20037;-46